sensor_id;sensor_type;location;lat;lon;timestamp;temperature;humidity
61912;DHT22;49973;52.084;5.412;2023-06-10T00:00:50;20.80;84.10
61912;DHT22;49973;52.084;5.412;2023-06-10T00:03:19;20.70;84.00
61912;DHT22;49973;52.084;5.412;2023-06-10T00:05:50;20.70;84.00
61912;DHT22;49973;52.084;5.412;2023-06-10T00:08:20;20.70;84.10
61912;DHT22;49973;52.084;5.412;2023-06-10T00:10:49;20.70;84.30
61912;DHT22;49973;52.084;5.412;2023-06-10T00:13:18;20.60;84.20
61912;DHT22;49973;52.084;5.412;2023-06-10T00:15:46;20.60;84.20
61912;DHT22;49973;52.084;5.412;2023-06-10T00:18:15;20.60;83.40
61912;DHT22;49973;52.084;5.412;2023-06-10T00:20:44;20.60;84.50
61912;DHT22;49973;52.084;5.412;2023-06-10T00:23:13;20.60;84.50
61912;DHT22;49973;52.084;5.412;2023-06-10T00:25:43;20.50;84.60
61912;DHT22;49973;52.084;5.412;2023-06-10T00:28:12;20.50;84.60
61912;DHT22;49973;52.084;5.412;2023-06-10T00:30:41;20.50;84.70
61912;DHT22;49973;52.084;5.412;2023-06-10T00:33:10;20.50;84.70
61912;DHT22;49973;52.084;5.412;2023-06-10T00:35:39;20.40;84.70
61912;DHT22;49973;52.084;5.412;2023-06-10T00:38:07;20.40;84.80
61912;DHT22;49973;52.084;5.412;2023-06-10T00:40:39;20.40;84.80
61912;DHT22;49973;52.084;5.412;2023-06-10T00:43:09;20.40;85.00
61912;DHT22;49973;52.084;5.412;2023-06-10T00:45:38;20.30;85.60
61912;DHT22;49973;52.084;5.412;2023-06-10T00:48:07;20.30;84.90
61912;DHT22;49973;52.084;5.412;2023-06-10T00:50:36;20.30;85.10
61912;DHT22;49973;52.084;5.412;2023-06-10T00:53:06;20.30;85.10
61912;DHT22;49973;52.084;5.412;2023-06-10T00:55:36;20.30;85.10
61912;DHT22;49973;52.084;5.412;2023-06-10T00:58:05;20.20;85.10
61912;DHT22;49973;52.084;5.412;2023-06-10T01:00:35;20.20;85.10
61912;DHT22;49973;52.084;5.412;2023-06-10T01:03:04;20.20;85.20
61912;DHT22;49973;52.084;5.412;2023-06-10T01:05:36;20.20;85.20
61912;DHT22;49973;52.084;5.412;2023-06-10T01:08:09;20.30;85.40
61912;DHT22;49973;52.084;5.412;2023-06-10T01:10:47;20.20;85.30
61912;DHT22;49973;52.084;5.412;2023-06-10T01:13:18;20.10;85.30
61912;DHT22;49973;52.084;5.412;2023-06-10T01:15:52;20.10;85.30
61912;DHT22;49973;52.084;5.412;2023-06-10T01:18:22;20.10;85.40
61912;DHT22;49973;52.084;5.412;2023-06-10T01:20:50;20.10;85.40
61912;DHT22;49973;52.084;5.412;2023-06-10T01:23:20;20.10;85.40
61912;DHT22;49973;52.084;5.412;2023-06-10T01:25:55;20.00;85.40
61912;DHT22;49973;52.084;5.412;2023-06-10T01:28:31;20.00;85.50
61912;DHT22;49973;52.084;5.412;2023-06-10T01:31:07;20.00;85.50
61912;DHT22;49973;52.084;5.412;2023-06-10T01:33:42;19.90;85.50
61912;DHT22;49973;52.084;5.412;2023-06-10T01:36:12;19.90;85.60
61912;DHT22;49973;52.084;5.412;2023-06-10T01:38:44;19.90;85.70
61912;DHT22;49973;52.084;5.412;2023-06-10T01:41:16;19.80;85.70
61912;DHT22;49973;52.084;5.412;2023-06-10T01:43:45;19.70;85.60
61912;DHT22;49973;52.084;5.412;2023-06-10T01:46:15;19.70;85.60
61912;DHT22;49973;52.084;5.412;2023-06-10T01:48:47;19.60;85.70
61912;DHT22;49973;52.084;5.412;2023-06-10T01:51:16;19.60;85.80
61912;DHT22;49973;52.084;5.412;2023-06-10T01:53:46;19.50;85.80
61912;DHT22;49973;52.084;5.412;2023-06-10T01:56:15;19.50;85.80
61912;DHT22;49973;52.084;5.412;2023-06-10T01:58:46;19.40;85.80
61912;DHT22;49973;52.084;5.412;2023-06-10T02:01:15;19.40;85.90
61912;DHT22;49973;52.084;5.412;2023-06-10T02:03:44;19.40;85.90
61912;DHT22;49973;52.084;5.412;2023-06-10T02:06:12;19.30;85.90
61912;DHT22;49973;52.084;5.412;2023-06-10T02:08:41;19.30;85.90
61912;DHT22;49973;52.084;5.412;2023-06-10T02:11:11;19.30;85.90
61912;DHT22;49973;52.084;5.412;2023-06-10T02:13:40;19.20;86.00
61912;DHT22;49973;52.084;5.412;2023-06-10T02:16:09;19.20;86.00
61912;DHT22;49973;52.084;5.412;2023-06-10T02:18:41;19.10;86.00
61912;DHT22;49973;52.084;5.412;2023-06-10T02:21:10;19.10;86.10
61912;DHT22;49973;52.084;5.412;2023-06-10T02:23:39;19.10;86.20
61912;DHT22;49973;52.084;5.412;2023-06-10T02:26:08;19.00;86.20
61912;DHT22;49973;52.084;5.412;2023-06-10T02:28:39;19.00;86.30
61912;DHT22;49973;52.084;5.412;2023-06-10T02:31:10;18.90;86.40
61912;DHT22;49973;52.084;5.412;2023-06-10T02:33:39;18.90;86.30
61912;DHT22;49973;52.084;5.412;2023-06-10T02:36:09;18.80;86.30
61912;DHT22;49973;52.084;5.412;2023-06-10T02:38:41;18.80;86.50
61912;DHT22;49973;52.084;5.412;2023-06-10T02:41:10;18.80;86.50
61912;DHT22;49973;52.084;5.412;2023-06-10T02:43:41;18.70;86.50
61912;DHT22;49973;52.084;5.412;2023-06-10T02:46:11;18.70;86.60
61912;DHT22;49973;52.084;5.412;2023-06-10T02:48:41;18.60;86.60
61912;DHT22;49973;52.084;5.412;2023-06-10T02:51:13;18.60;86.70
61912;DHT22;49973;52.084;5.412;2023-06-10T02:53:46;18.60;86.80
61912;DHT22;49973;52.084;5.412;2023-06-10T02:56:16;18.50;86.80
61912;DHT22;49973;52.084;5.412;2023-06-10T02:58:47;18.50;86.90
61912;DHT22;49973;52.084;5.412;2023-06-10T03:01:17;18.40;86.90
61912;DHT22;49973;52.084;5.412;2023-06-10T03:03:54;18.40;87.00
61912;DHT22;49973;52.084;5.412;2023-06-10T03:06:23;18.40;87.00
61912;DHT22;49973;52.084;5.412;2023-06-10T03:09:01;18.30;87.00
61912;DHT22;49973;52.084;5.412;2023-06-10T03:11:31;18.30;87.10
61912;DHT22;49973;52.084;5.412;2023-06-10T03:14:02;18.40;87.30
61912;DHT22;49973;52.084;5.412;2023-06-10T03:16:31;18.30;87.30
61912;DHT22;49973;52.084;5.412;2023-06-10T03:19:00;18.30;87.30
61912;DHT22;49973;52.084;5.412;2023-06-10T03:21:30;18.30;87.40
61912;DHT22;49973;52.084;5.412;2023-06-10T03:23:59;18.30;87.50
61912;DHT22;49973;52.084;5.412;2023-06-10T03:26:29;18.30;87.50
61912;DHT22;49973;52.084;5.412;2023-06-10T03:28:58;18.30;87.60
61912;DHT22;49973;52.084;5.412;2023-06-10T03:31:29;18.20;87.60
61912;DHT22;49973;52.084;5.412;2023-06-10T03:33:58;18.20;87.80
61912;DHT22;49973;52.084;5.412;2023-06-10T03:36:27;18.20;87.80
61912;DHT22;49973;52.084;5.412;2023-06-10T03:38:57;18.20;88.00
61912;DHT22;49973;52.084;5.412;2023-06-10T03:41:26;18.20;88.00
61912;DHT22;49973;52.084;5.412;2023-06-10T03:43:55;18.20;88.10
61912;DHT22;49973;52.084;5.412;2023-06-10T03:46:24;18.20;88.90
61912;DHT22;49973;52.084;5.412;2023-06-10T03:48:54;18.20;88.30
61912;DHT22;49973;52.084;5.412;2023-06-10T03:51:23;18.20;88.40
61912;DHT22;49973;52.084;5.412;2023-06-10T03:53:52;18.20;88.50
61912;DHT22;49973;52.084;5.412;2023-06-10T03:56:21;18.20;88.50
61912;DHT22;49973;52.084;5.412;2023-06-10T03:58:50;18.20;88.60
61912;DHT22;49973;52.084;5.412;2023-06-10T04:01:19;18.20;88.70
61912;DHT22;49973;52.084;5.412;2023-06-10T04:03:48;18.20;89.50
61912;DHT22;49973;52.084;5.412;2023-06-10T04:06:20;18.10;88.80
61912;DHT22;49973;52.084;5.412;2023-06-10T04:08:49;18.20;89.10
61912;DHT22;49973;52.084;5.412;2023-06-10T04:11:18;18.30;89.20
61912;DHT22;49973;52.084;5.412;2023-06-10T04:13:48;18.30;89.30
61912;DHT22;49973;52.084;5.412;2023-06-10T04:16:18;18.30;89.40
61912;DHT22;49973;52.084;5.412;2023-06-10T04:18:48;18.40;89.50
61912;DHT22;49973;52.084;5.412;2023-06-10T04:21:17;18.40;89.60
61912;DHT22;49973;52.084;5.412;2023-06-10T04:23:50;18.50;89.80
61912;DHT22;49973;52.084;5.412;2023-06-10T04:26:19;18.60;90.00
61912;DHT22;49973;52.084;5.412;2023-06-10T04:28:50;18.60;90.00
61912;DHT22;49973;52.084;5.412;2023-06-10T04:31:19;18.80;90.10
61912;DHT22;49973;52.084;5.412;2023-06-10T04:33:48;18.70;90.10
61912;DHT22;49973;52.084;5.412;2023-06-10T04:36:17;18.80;90.30
61912;DHT22;49973;52.084;5.412;2023-06-10T04:38:46;18.80;90.30
61912;DHT22;49973;52.084;5.412;2023-06-10T04:41:16;18.90;90.40
61912;DHT22;49973;52.084;5.412;2023-06-10T04:43:45;19.00;90.50
61912;DHT22;49973;52.084;5.412;2023-06-10T04:46:14;19.00;90.50
61912;DHT22;49973;52.084;5.412;2023-06-10T04:48:44;19.10;90.60
61912;DHT22;49973;52.084;5.412;2023-06-10T04:51:14;19.20;90.60
61912;DHT22;49973;52.084;5.412;2023-06-10T04:53:44;19.30;90.70
61912;DHT22;49973;52.084;5.412;2023-06-10T04:56:13;19.30;90.80
61912;DHT22;49973;52.084;5.412;2023-06-10T04:58:44;19.40;90.90
61912;DHT22;49973;52.084;5.412;2023-06-10T05:01:12;19.40;90.90
61912;DHT22;49973;52.084;5.412;2023-06-10T05:03:41;19.50;91.00
61912;DHT22;49973;52.084;5.412;2023-06-10T05:06:10;19.60;91.10
61912;DHT22;49973;52.084;5.412;2023-06-10T05:08:38;19.70;91.20
61912;DHT22;49973;52.084;5.412;2023-06-10T05:11:07;19.70;91.20
61912;DHT22;49973;52.084;5.412;2023-06-10T05:13:36;19.80;91.30
61912;DHT22;49973;52.084;5.412;2023-06-10T05:16:06;19.80;91.40
61912;DHT22;49973;52.084;5.412;2023-06-10T05:18:35;19.90;91.50
61912;DHT22;49973;52.084;5.412;2023-06-10T05:21:04;20.00;91.60
61912;DHT22;49973;52.084;5.412;2023-06-10T05:23:33;20.10;91.70
61912;DHT22;49973;52.084;5.412;2023-06-10T05:26:02;20.20;91.80
61912;DHT22;49973;52.084;5.412;2023-06-10T05:28:31;20.20;91.90
61912;DHT22;49973;52.084;5.412;2023-06-10T05:30:59;20.30;91.90
61912;DHT22;49973;52.084;5.412;2023-06-10T05:33:29;20.40;92.00
61912;DHT22;49973;52.084;5.412;2023-06-10T05:35:58;20.50;92.20
61912;DHT22;49973;52.084;5.412;2023-06-10T05:38:26;20.60;92.20
61912;DHT22;49973;52.084;5.412;2023-06-10T05:40:55;20.60;92.30
61912;DHT22;49973;52.084;5.412;2023-06-10T05:43:26;20.70;92.30
61912;DHT22;49973;52.084;5.412;2023-06-10T05:45:54;20.80;92.50
61912;DHT22;49973;52.084;5.412;2023-06-10T05:48:23;20.90;92.50
61912;DHT22;49973;52.084;5.412;2023-06-10T05:50:53;21.00;92.70
61912;DHT22;49973;52.084;5.412;2023-06-10T05:53:22;21.10;92.80
61912;DHT22;49973;52.084;5.412;2023-06-10T05:55:50;21.20;93.00
61912;DHT22;49973;52.084;5.412;2023-06-10T05:58:21;21.30;93.60
61912;DHT22;49973;52.084;5.412;2023-06-10T06:00:49;21.50;94.50
61912;DHT22;49973;52.084;5.412;2023-06-10T06:03:18;21.60;95.30
61912;DHT22;49973;52.084;5.412;2023-06-10T06:05:47;21.90;95.90
61912;DHT22;49973;52.084;5.412;2023-06-10T06:08:17;22.20;96.50
61912;DHT22;49973;52.084;5.412;2023-06-10T06:10:46;22.80;96.90
61912;DHT22;49973;52.084;5.412;2023-06-10T06:13:15;23.40;96.90
61912;DHT22;49973;52.084;5.412;2023-06-10T06:15:43;23.80;96.60
61912;DHT22;49973;52.084;5.412;2023-06-10T06:18:12;24.00;96.20
61912;DHT22;49973;52.084;5.412;2023-06-10T06:20:40;24.00;95.80
61912;DHT22;49973;52.084;5.412;2023-06-10T06:23:09;24.10;95.50
61912;DHT22;49973;52.084;5.412;2023-06-10T06:25:39;24.00;95.30
61912;DHT22;49973;52.084;5.412;2023-06-10T06:28:09;24.00;95.10
61912;DHT22;49973;52.084;5.412;2023-06-10T06:30:38;23.90;95.00
61912;DHT22;49973;52.084;5.412;2023-06-10T06:33:06;23.90;94.90
61912;DHT22;49973;52.084;5.412;2023-06-10T06:35:35;23.80;94.90
61912;DHT22;49973;52.084;5.412;2023-06-10T06:38:05;23.80;94.80
61912;DHT22;49973;52.084;5.412;2023-06-10T06:40:35;23.80;94.80
61912;DHT22;49973;52.084;5.412;2023-06-10T06:43:05;23.80;94.70
61912;DHT22;49973;52.084;5.412;2023-06-10T06:45:52;23.80;94.70
61912;DHT22;49973;52.084;5.412;2023-06-10T06:48:21;23.80;94.70
61912;DHT22;49973;52.084;5.412;2023-06-10T06:50:50;23.80;94.70
61912;DHT22;49973;52.084;5.412;2023-06-10T06:53:18;23.80;94.80
61912;DHT22;49973;52.084;5.412;2023-06-10T06:55:47;23.80;95.00
61912;DHT22;49973;52.084;5.412;2023-06-10T06:58:17;24.00;95.30
61912;DHT22;49973;52.084;5.412;2023-06-10T07:00:46;24.20;95.30
61912;DHT22;49973;52.084;5.412;2023-06-10T07:03:15;24.30;95.10
61912;DHT22;49973;52.084;5.412;2023-06-10T07:05:44;24.40;95.10
61912;DHT22;49973;52.084;5.412;2023-06-10T07:08:13;24.40;95.10
61912;DHT22;49973;52.084;5.412;2023-06-10T07:10:42;24.40;95.00
61912;DHT22;49973;52.084;5.412;2023-06-10T07:13:11;24.50;95.30
61912;DHT22;49973;52.084;5.412;2023-06-10T07:15:43;24.50;95.60
61912;DHT22;49973;52.084;5.412;2023-06-10T07:18:11;24.60;96.20
61912;DHT22;49973;52.084;5.412;2023-06-10T07:20:40;24.70;96.90
61912;DHT22;49973;52.084;5.412;2023-06-10T07:23:09;25.00;98.00
61912;DHT22;49973;52.084;5.412;2023-06-10T07:25:38;25.30;99.00
61912;DHT22;49973;52.084;5.412;2023-06-10T07:28:07;25.80;99.80
61912;DHT22;49973;52.084;5.412;2023-06-10T07:30:36;26.10;99.90
61912;DHT22;49973;52.084;5.412;2023-06-10T07:33:06;26.30;99.90
61912;DHT22;49973;52.084;5.412;2023-06-10T07:35:35;26.50;99.90
61912;DHT22;49973;52.084;5.412;2023-06-10T07:38:04;26.80;99.90
61912;DHT22;49973;52.084;5.412;2023-06-10T07:40:33;27.20;99.90
61912;DHT22;49973;52.084;5.412;2023-06-10T07:43:02;27.60;99.90
61912;DHT22;49973;52.084;5.412;2023-06-10T07:45:31;28.00;99.90
61912;DHT22;49973;52.084;5.412;2023-06-10T07:47:59;28.40;99.90
61912;DHT22;49973;52.084;5.412;2023-06-10T07:50:30;28.70;99.90
61912;DHT22;49973;52.084;5.412;2023-06-10T07:52:59;28.90;99.90
61912;DHT22;49973;52.084;5.412;2023-06-10T07:55:28;29.00;99.20
61912;DHT22;49973;52.084;5.412;2023-06-10T07:57:56;28.80;98.50
61912;DHT22;49973;52.084;5.412;2023-06-10T08:00:25;28.70;97.80
61912;DHT22;49973;52.084;5.412;2023-06-10T08:02:55;28.50;97.20
61912;DHT22;49973;52.084;5.412;2023-06-10T08:05:24;28.40;96.80
61912;DHT22;49973;52.084;5.412;2023-06-10T08:07:56;28.30;96.50
61912;DHT22;49973;52.084;5.412;2023-06-10T08:10:28;28.10;96.20
61912;DHT22;49973;52.084;5.412;2023-06-10T08:12:57;28.00;96.10
61912;DHT22;49973;52.084;5.412;2023-06-10T08:15:26;27.90;96.00
61912;DHT22;49973;52.084;5.412;2023-06-10T08:17:54;27.90;95.80
61912;DHT22;49973;52.084;5.412;2023-06-10T08:20:24;27.90;95.70
61912;DHT22;49973;52.084;5.412;2023-06-10T08:22:55;27.90;95.50
61912;DHT22;49973;52.084;5.412;2023-06-10T08:25:23;27.90;95.40
61912;DHT22;49973;52.084;5.412;2023-06-10T08:27:52;27.90;95.20
61912;DHT22;49973;52.084;5.412;2023-06-10T08:30:24;27.90;95.10
61912;DHT22;49973;52.084;5.412;2023-06-10T08:32:53;27.90;95.00
61912;DHT22;49973;52.084;5.412;2023-06-10T08:35:23;28.00;94.90
61912;DHT22;49973;52.084;5.412;2023-06-10T08:37:52;28.00;94.90
61912;DHT22;49973;52.084;5.412;2023-06-10T08:40:22;28.00;94.70
61912;DHT22;49973;52.084;5.412;2023-06-10T08:43:00;28.10;94.70
61912;DHT22;49973;52.084;5.412;2023-06-10T08:45:30;28.20;94.80
61912;DHT22;49973;52.084;5.412;2023-06-10T08:47:59;28.30;94.70
61912;DHT22;49973;52.084;5.412;2023-06-10T08:50:30;28.30;94.50
61912;DHT22;49973;52.084;5.412;2023-06-10T08:53:00;28.40;94.40
61912;DHT22;49973;52.084;5.412;2023-06-10T08:55:32;28.40;94.40
61912;DHT22;49973;52.084;5.412;2023-06-10T08:58:02;28.50;94.50
61912;DHT22;49973;52.084;5.412;2023-06-10T09:00:32;28.60;94.60
61912;DHT22;49973;52.084;5.412;2023-06-10T09:03:03;28.70;94.50
61912;DHT22;49973;52.084;5.412;2023-06-10T09:05:33;28.80;94.40
61912;DHT22;49973;52.084;5.412;2023-06-10T09:08:06;28.80;94.30
61912;DHT22;49973;52.084;5.412;2023-06-10T09:10:38;28.90;94.20
61912;DHT22;49973;52.084;5.412;2023-06-10T09:13:07;29.00;94.10
61912;DHT22;49973;52.084;5.412;2023-06-10T09:15:36;29.10;94.20
61912;DHT22;49973;52.084;5.412;2023-06-10T09:18:07;29.10;94.10
61912;DHT22;49973;52.084;5.412;2023-06-10T09:20:36;29.30;94.10
61912;DHT22;49973;52.084;5.412;2023-06-10T09:23:07;29.40;94.00
61912;DHT22;49973;52.084;5.412;2023-06-10T09:25:38;29.50;94.00
61912;DHT22;49973;52.084;5.412;2023-06-10T09:28:13;29.60;94.00
61912;DHT22;49973;52.084;5.412;2023-06-10T09:30:43;29.70;93.90
61912;DHT22;49973;52.084;5.412;2023-06-10T09:33:13;29.80;93.80
61912;DHT22;49973;52.084;5.412;2023-06-10T09:35:47;29.90;93.70
61912;DHT22;49973;52.084;5.412;2023-06-10T09:38:20;30.00;93.80
61912;DHT22;49973;52.084;5.412;2023-06-10T09:40:52;30.10;93.80
61912;DHT22;49973;52.084;5.412;2023-06-10T09:43:22;30.30;93.70
61912;DHT22;49973;52.084;5.412;2023-06-10T09:45:51;30.40;93.40
61912;DHT22;49973;52.084;5.412;2023-06-10T09:48:21;30.40;93.30
61912;DHT22;49973;52.084;5.412;2023-06-10T09:50:51;30.50;93.40
61912;DHT22;49973;52.084;5.412;2023-06-10T09:53:20;30.60;93.50
61912;DHT22;49973;52.084;5.412;2023-06-10T09:55:51;30.70;93.30
61912;DHT22;49973;52.084;5.412;2023-06-10T09:58:34;30.80;93.30
61912;DHT22;49973;52.084;5.412;2023-06-10T10:01:05;31.00;93.30
61912;DHT22;49973;52.084;5.412;2023-06-10T10:03:43;31.10;93.10
61912;DHT22;49973;52.084;5.412;2023-06-10T10:06:12;31.20;93.00
61912;DHT22;49973;52.084;5.412;2023-06-10T10:08:42;31.30;92.90
61912;DHT22;49973;52.084;5.412;2023-06-10T10:11:14;31.40;92.60
61912;DHT22;49973;52.084;5.412;2023-06-10T10:13:48;31.40;92.50
61912;DHT22;49973;52.084;5.412;2023-06-10T10:16:19;31.40;92.40
61912;DHT22;49973;52.084;5.412;2023-06-10T10:18:54;31.50;92.40
61912;DHT22;49973;52.084;5.412;2023-06-10T10:21:26;31.60;92.30
61912;DHT22;49973;52.084;5.412;2023-06-10T10:24:03;31.70;92.20
61912;DHT22;49973;52.084;5.412;2023-06-10T10:26:38;31.80;92.20
61912;DHT22;49973;52.084;5.412;2023-06-10T10:29:10;31.80;92.10
61912;DHT22;49973;52.084;5.412;2023-06-10T10:31:39;32.00;91.80
61912;DHT22;49973;52.084;5.412;2023-06-10T10:34:13;32.00;91.80
61912;DHT22;49973;52.084;5.412;2023-06-10T10:36:44;32.10;91.60
61912;DHT22;49973;52.084;5.412;2023-06-10T10:39:16;32.20;91.40
61912;DHT22;49973;52.084;5.412;2023-06-10T10:41:47;32.20;91.20
61912;DHT22;49973;52.084;5.412;2023-06-10T10:44:16;32.30;91.20
61912;DHT22;49973;52.084;5.412;2023-06-10T10:46:49;32.40;91.10
61912;DHT22;49973;52.084;5.412;2023-06-10T10:49:18;32.50;91.10
61912;DHT22;49973;52.084;5.412;2023-06-10T10:51:57;32.60;91.00
61912;DHT22;49973;52.084;5.412;2023-06-10T10:54:31;32.70;90.80
61912;DHT22;49973;52.084;5.412;2023-06-10T10:57:15;32.70;90.50
61912;DHT22;49973;52.084;5.412;2023-06-10T10:59:58;32.80;90.50
61912;DHT22;49973;52.084;5.412;2023-06-10T11:02:37;32.90;90.30
61912;DHT22;49973;52.084;5.412;2023-06-10T11:05:13;32.90;90.20
61912;DHT22;49973;52.084;5.412;2023-06-10T11:07:53;33.00;90.10
61912;DHT22;49973;52.084;5.412;2023-06-10T11:10:33;33.10;90.10
61912;DHT22;49973;52.084;5.412;2023-06-10T11:13:08;33.20;90.00
61912;DHT22;49973;52.084;5.412;2023-06-10T11:15:44;33.30;89.80
61912;DHT22;49973;52.084;5.412;2023-06-10T11:18:19;33.50;89.30
61912;DHT22;49973;52.084;5.412;2023-06-10T11:20:53;33.60;89.10
61912;DHT22;49973;52.084;5.412;2023-06-10T11:23:39;33.70;88.90
61912;DHT22;49973;52.084;5.412;2023-06-10T11:26:20;33.80;88.70
61912;DHT22;49973;52.084;5.412;2023-06-10T11:29:07;33.90;88.10
61912;DHT22;49973;52.084;5.412;2023-06-10T11:31:54;33.90;87.80
61912;DHT22;49973;52.084;5.412;2023-06-10T11:34:24;34.00;87.60
61912;DHT22;49973;52.084;5.412;2023-06-10T11:36:54;34.10;87.10
61912;DHT22;49973;52.084;5.412;2023-06-10T11:39:24;34.20;86.50
61912;DHT22;49973;52.084;5.412;2023-06-10T11:41:54;34.20;85.80
61912;DHT22;49973;52.084;5.412;2023-06-10T11:44:27;34.20;85.70
61912;DHT22;49973;52.084;5.412;2023-06-10T11:46:57;34.20;85.60
61912;DHT22;49973;52.084;5.412;2023-06-10T11:49:26;34.30;85.20
61912;DHT22;49973;52.084;5.412;2023-06-10T11:51:55;34.30;84.70
61912;DHT22;49973;52.084;5.412;2023-06-10T11:54:24;34.30;84.10
61912;DHT22;49973;52.084;5.412;2023-06-10T11:56:57;34.40;84.10
61912;DHT22;49973;52.084;5.412;2023-06-10T11:59:29;34.50;84.40
61912;DHT22;49973;52.084;5.412;2023-06-10T12:01:58;34.60;83.90
61912;DHT22;49973;52.084;5.412;2023-06-10T12:04:27;34.60;83.90
61912;DHT22;49973;52.084;5.412;2023-06-10T12:06:56;34.80;83.70
61912;DHT22;49973;52.084;5.412;2023-06-10T12:09:26;34.90;83.50
61912;DHT22;49973;52.084;5.412;2023-06-10T12:11:58;35.00;82.90
61912;DHT22;49973;52.084;5.412;2023-06-10T12:15:06;35.20;82.80
61912;DHT22;49973;52.084;5.412;2023-06-10T12:17:37;35.40;80.00
61912;DHT22;49973;52.084;5.412;2023-06-10T12:20:07;35.60;80.10
61912;DHT22;49973;52.084;5.412;2023-06-10T12:22:37;35.90;79.80
61912;DHT22;49973;52.084;5.412;2023-06-10T12:25:08;36.00;79.30
61912;DHT22;49973;52.084;5.412;2023-06-10T12:27:40;36.10;78.70
61912;DHT22;49973;52.084;5.412;2023-06-10T12:30:19;36.30;78.30
61912;DHT22;49973;52.084;5.412;2023-06-10T12:32:48;36.40;77.60
61912;DHT22;49973;52.084;5.412;2023-06-10T12:35:19;36.50;77.60
61912;DHT22;49973;52.084;5.412;2023-06-10T12:37:55;36.70;77.30
61912;DHT22;49973;52.084;5.412;2023-06-10T12:40:28;36.80;76.80
61912;DHT22;49973;52.084;5.412;2023-06-10T12:42:57;37.00;76.70
61912;DHT22;49973;52.084;5.412;2023-06-10T12:45:28;37.30;76.50
61912;DHT22;49973;52.084;5.412;2023-06-10T12:48:05;37.40;76.10
61912;DHT22;49973;52.084;5.412;2023-06-10T12:50:36;37.40;75.80
61912;DHT22;49973;52.084;5.412;2023-06-10T12:53:07;37.40;75.50
61912;DHT22;49973;52.084;5.412;2023-06-10T12:55:36;37.40;74.90
61912;DHT22;49973;52.084;5.412;2023-06-10T12:58:04;37.20;74.60
61912;DHT22;49973;52.084;5.412;2023-06-10T13:00:34;37.10;74.40
61912;DHT22;49973;52.084;5.412;2023-06-10T13:03:03;37.10;74.20
61912;DHT22;49973;52.084;5.412;2023-06-10T13:05:34;36.90;73.80
61912;DHT22;49973;52.084;5.412;2023-06-10T13:08:05;36.80;73.40
61912;DHT22;49973;52.084;5.412;2023-06-10T13:10:34;36.60;73.20
61912;DHT22;49973;52.084;5.412;2023-06-10T13:13:03;36.30;73.10
61912;DHT22;49973;52.084;5.412;2023-06-10T13:15:36;36.10;72.90
61912;DHT22;49973;52.084;5.412;2023-06-10T13:18:10;36.00;72.60
61912;DHT22;49973;52.084;5.412;2023-06-10T13:20:39;35.80;72.40
61912;DHT22;49973;52.084;5.412;2023-06-10T13:23:08;35.60;72.30
61912;DHT22;49973;52.084;5.412;2023-06-10T13:25:36;35.40;72.10
61912;DHT22;49973;52.084;5.412;2023-06-10T13:28:05;35.30;72.00
61912;DHT22;49973;52.084;5.412;2023-06-10T13:30:36;35.20;71.90
61912;DHT22;49973;52.084;5.412;2023-06-10T13:33:04;35.10;72.10
61912;DHT22;49973;52.084;5.412;2023-06-10T13:35:33;35.00;72.00
61912;DHT22;49973;52.084;5.412;2023-06-10T13:38:02;35.00;72.20
61912;DHT22;49973;52.084;5.412;2023-06-10T13:40:31;34.90;71.80
61912;DHT22;49973;52.084;5.412;2023-06-10T13:42:59;34.70;71.70
61912;DHT22;49973;52.084;5.412;2023-06-10T13:45:28;34.60;71.70
61912;DHT22;49973;52.084;5.412;2023-06-10T13:47:59;34.60;72.40
61912;DHT22;49973;52.084;5.412;2023-06-10T13:50:28;34.60;71.10
61912;DHT22;49973;52.084;5.412;2023-06-10T13:52:57;34.50;70.80
61912;DHT22;49973;52.084;5.412;2023-06-10T13:55:29;34.30;70.70
61912;DHT22;49973;52.084;5.412;2023-06-10T13:57:58;34.10;70.60
61912;DHT22;49973;52.084;5.412;2023-06-10T14:00:28;34.00;70.50
61912;DHT22;49973;52.084;5.412;2023-06-10T14:02:58;33.70;70.30
61912;DHT22;49973;52.084;5.412;2023-06-10T14:05:27;33.60;70.40
61912;DHT22;49973;52.084;5.412;2023-06-10T14:07:58;33.50;70.30
61912;DHT22;49973;52.084;5.412;2023-06-10T14:10:27;33.30;70.10
61912;DHT22;49973;52.084;5.412;2023-06-10T14:12:56;33.20;70.00
61912;DHT22;49973;52.084;5.412;2023-06-10T14:15:25;33.10;69.80
61912;DHT22;49973;52.084;5.412;2023-06-10T14:17:54;33.00;69.90
61912;DHT22;49973;52.084;5.412;2023-06-10T14:20:25;32.80;69.50
61912;DHT22;49973;52.084;5.412;2023-06-10T14:22:58;32.70;69.30
61912;DHT22;49973;52.084;5.412;2023-06-10T14:25:27;32.50;69.10
61912;DHT22;49973;52.084;5.412;2023-06-10T14:27:56;32.50;69.00
61912;DHT22;49973;52.084;5.412;2023-06-10T14:30:25;32.40;69.30
61912;DHT22;49973;52.084;5.412;2023-06-10T14:32:54;32.40;69.30
61912;DHT22;49973;52.084;5.412;2023-06-10T14:35:23;32.30;69.20
61912;DHT22;49973;52.084;5.412;2023-06-10T14:37:53;32.20;69.00
61912;DHT22;49973;52.084;5.412;2023-06-10T14:40:21;32.10;68.80
61912;DHT22;49973;52.084;5.412;2023-06-10T14:42:52;32.10;68.80
61912;DHT22;49973;52.084;5.412;2023-06-10T14:45:20;32.10;68.80
61912;DHT22;49973;52.084;5.412;2023-06-10T14:47:49;32.10;68.80
61912;DHT22;49973;52.084;5.412;2023-06-10T14:50:18;32.00;68.80
61912;DHT22;49973;52.084;5.412;2023-06-10T14:52:47;32.00;68.20
61912;DHT22;49973;52.084;5.412;2023-06-10T14:55:17;31.90;68.40
61912;DHT22;49973;52.084;5.412;2023-06-10T14:57:46;31.90;68.30
61912;DHT22;49973;52.084;5.412;2023-06-10T15:00:15;31.80;68.10
61912;DHT22;49973;52.084;5.412;2023-06-10T15:02:47;31.70;67.90
61912;DHT22;49973;52.084;5.412;2023-06-10T15:05:17;31.70;68.00
61912;DHT22;49973;52.084;5.412;2023-06-10T15:07:47;31.60;67.90
61912;DHT22;49973;52.084;5.412;2023-06-10T15:10:17;31.50;67.80
61912;DHT22;49973;52.084;5.412;2023-06-10T15:12:50;31.50;67.80
61912;DHT22;49973;52.084;5.412;2023-06-10T15:15:24;31.50;67.60
61912;DHT22;49973;52.084;5.412;2023-06-10T15:17:53;31.40;67.60
61912;DHT22;49973;52.084;5.412;2023-06-10T15:20:23;31.30;67.50
61912;DHT22;49973;52.084;5.412;2023-06-10T15:22:51;31.30;67.30
61912;DHT22;49973;52.084;5.412;2023-06-10T15:25:22;31.30;67.20
61912;DHT22;49973;52.084;5.412;2023-06-10T15:27:58;31.20;67.10
61912;DHT22;49973;52.084;5.412;2023-06-10T15:30:27;31.20;67.20
61912;DHT22;49973;52.084;5.412;2023-06-10T15:32:56;31.20;67.10
61912;DHT22;49973;52.084;5.412;2023-06-10T15:35:25;31.10;67.00
61912;DHT22;49973;52.084;5.412;2023-06-10T15:37:54;31.10;67.00
61912;DHT22;49973;52.084;5.412;2023-06-10T15:40:24;31.10;67.20
61912;DHT22;49973;52.084;5.412;2023-06-10T15:42:53;31.00;67.00
61912;DHT22;49973;52.084;5.412;2023-06-10T15:45:22;31.00;67.00
61912;DHT22;49973;52.084;5.412;2023-06-10T15:47:51;31.00;67.00
61912;DHT22;49973;52.084;5.412;2023-06-10T15:50:20;31.00;66.90